sensor_id;sensor_type;location;lat;lon;timestamp;P1;durP1;ratioP1;P2;durP2;ratioP2
18752;SDS011;9505;50.882;5.350;2023-03-16T00:02:08;43.83;;;8.43;;
18752;SDS011;9505;50.882;5.350;2023-03-16T00:04:35;40.20;;;7.55;;
18752;SDS011;9505;50.882;5.350;2023-03-16T00:07:08;43.38;;;8.40;;
18752;SDS011;9505;50.882;5.350;2023-03-16T00:09:35;44.92;;;8.10;;
18752;SDS011;9505;50.882;5.350;2023-03-16T00:12:05;52.75;;;8.10;;
18752;SDS011;9505;50.882;5.350;2023-03-16T00:14:40;38.65;;;7.75;;
18752;SDS011;9505;50.882;5.350;2023-03-16T00:17:10;42.65;;;8.50;;
18752;SDS011;9505;50.882;5.350;2023-03-16T00:19:53;38.40;;;7.90;;
18752;SDS011;9505;50.882;5.350;2023-03-16T00:22:20;35.58;;;7.32;;
18752;SDS011;9505;50.882;5.350;2023-03-16T00:24:48;37.25;;;7.45;;
18752;SDS011;9505;50.882;5.350;2023-03-16T00:27:14;39.35;;;7.35;;
18752;SDS011;9505;50.882;5.350;2023-03-16T00:29:41;38.67;;;7.25;;
18752;SDS011;9505;50.882;5.350;2023-03-16T00:32:18;45.05;;;8.00;;
18752;SDS011;9505;50.882;5.350;2023-03-16T00:34:45;37.65;;;7.00;;
18752;SDS011;9505;50.882;5.350;2023-03-16T00:37:11;42.53;;;7.95;;
18752;SDS011;9505;50.882;5.350;2023-03-16T00:39:39;30.70;;;7.05;;
18752;SDS011;9505;50.882;5.350;2023-03-16T00:42:05;48.47;;;7.95;;
18752;SDS011;9505;50.882;5.350;2023-03-16T00:44:31;38.25;;;7.43;;
18752;SDS011;9505;50.882;5.350;2023-03-16T00:46:57;37.22;;;6.97;;
18752;SDS011;9505;50.882;5.350;2023-03-16T00:49:23;31.92;;;6.82;;
18752;SDS011;9505;50.882;5.350;2023-03-16T00:51:48;38.03;;;7.28;;
18752;SDS011;9505;50.882;5.350;2023-03-16T00:54:14;41.50;;;7.50;;
18752;SDS011;9505;50.882;5.350;2023-03-16T00:56:41;37.30;;;6.72;;
18752;SDS011;9505;50.882;5.350;2023-03-16T00:59:07;37.42;;;6.72;;
18752;SDS011;9505;50.882;5.350;2023-03-16T01:01:33;33.65;;;6.38;;
18752;SDS011;9505;50.882;5.350;2023-03-16T01:03:58;33.80;;;6.60;;
18752;SDS011;9505;50.882;5.350;2023-03-16T01:06:25;44.80;;;7.03;;
18752;SDS011;9505;50.882;5.350;2023-03-16T01:08:51;30.85;;;5.82;;
18752;SDS011;9505;50.882;5.350;2023-03-16T01:11:18;37.58;;;6.40;;
18752;SDS011;9505;50.882;5.350;2023-03-16T01:13:46;38.28;;;6.70;;
18752;SDS011;9505;50.882;5.350;2023-03-16T01:16:13;38.67;;;7.07;;
18752;SDS011;9505;50.882;5.350;2023-03-16T01:18:40;30.90;;;5.72;;
18752;SDS011;9505;50.882;5.350;2023-03-16T01:21:07;39.05;;;7.18;;
18752;SDS011;9505;50.882;5.350;2023-03-16T01:23:34;36.17;;;6.07;;
18752;SDS011;9505;50.882;5.350;2023-03-16T01:26:00;41.17;;;7.28;;
18752;SDS011;9505;50.882;5.350;2023-03-16T01:28:27;42.58;;;6.95;;
18752;SDS011;9505;50.882;5.350;2023-03-16T01:30:55;36.65;;;6.60;;
18752;SDS011;9505;50.882;5.350;2023-03-16T01:33:25;32.20;;;6.32;;
18752;SDS011;9505;50.882;5.350;2023-03-16T01:35:59;37.50;;;6.88;;
18752;SDS011;9505;50.882;5.350;2023-03-16T01:38:33;36.92;;;6.32;;
18752;SDS011;9505;50.882;5.350;2023-03-16T01:41:00;37.80;;;6.15;;
18752;SDS011;9505;50.882;5.350;2023-03-16T01:43:27;37.78;;;6.20;;
18752;SDS011;9505;50.882;5.350;2023-03-16T01:48:28;44.28;;;6.88;;
18752;SDS011;9505;50.882;5.350;2023-03-16T01:51:05;38.65;;;6.40;;
18752;SDS011;9505;50.882;5.350;2023-03-16T01:53:35;33.67;;;5.90;;
18752;SDS011;9505;50.882;5.350;2023-03-16T01:56:04;35.00;;;6.05;;
18752;SDS011;9505;50.882;5.350;2023-03-16T01:58:33;39.88;;;6.70;;
18752;SDS011;9505;50.882;5.350;2023-03-16T02:01:01;42.13;;;6.53;;
18752;SDS011;9505;50.882;5.350;2023-03-16T02:03:28;35.53;;;5.95;;
18752;SDS011;9505;50.882;5.350;2023-03-16T02:06:00;41.15;;;6.60;;
18752;SDS011;9505;50.882;5.350;2023-03-16T02:08:29;40.67;;;6.47;;
18752;SDS011;9505;50.882;5.350;2023-03-16T02:10:56;43.08;;;7.40;;
18752;SDS011;9505;50.882;5.350;2023-03-16T02:13:22;33.85;;;5.55;;
18752;SDS011;9505;50.882;5.350;2023-03-16T02:15:50;34.88;;;6.13;;
18752;SDS011;9505;50.882;5.350;2023-03-16T02:18:17;30.98;;;5.20;;
18752;SDS011;9505;50.882;5.350;2023-03-16T02:20:51;34.67;;;5.68;;
18752;SDS011;9505;50.882;5.350;2023-03-16T02:23:29;38.25;;;5.85;;
18752;SDS011;9505;50.882;5.350;2023-03-16T02:26:06;35.35;;;5.85;;
18752;SDS011;9505;50.882;5.350;2023-03-16T02:31:41;37.90;;;6.15;;
18752;SDS011;9505;50.882;5.350;2023-03-16T02:34:06;36.33;;;5.75;;
18752;SDS011;9505;50.882;5.350;2023-03-16T02:36:33;40.67;;;6.25;;
18752;SDS011;9505;50.882;5.350;2023-03-16T02:39:02;39.13;;;6.15;;
18752;SDS011;9505;50.882;5.350;2023-03-16T02:41:29;35.35;;;6.22;;
18752;SDS011;9505;50.882;5.350;2023-03-16T02:44:11;46.25;;;6.70;;
18752;SDS011;9505;50.882;5.350;2023-03-16T02:46:40;38.88;;;6.18;;
18752;SDS011;9505;50.882;5.350;2023-03-16T02:49:19;35.90;;;6.18;;
18752;SDS011;9505;50.882;5.350;2023-03-16T02:51:49;30.70;;;5.43;;
18752;SDS011;9505;50.882;5.350;2023-03-16T02:54:15;34.58;;;5.78;;
18752;SDS011;9505;50.882;5.350;2023-03-16T02:56:41;37.90;;;5.82;;
18752;SDS011;9505;50.882;5.350;2023-03-16T02:59:06;42.22;;;6.97;;
18752;SDS011;9505;50.882;5.350;2023-03-16T03:01:33;42.78;;;6.05;;
18752;SDS011;9505;50.882;5.350;2023-03-16T03:03:59;35.20;;;5.35;;
18752;SDS011;9505;50.882;5.350;2023-03-16T03:06:25;39.30;;;5.68;;
18752;SDS011;9505;50.882;5.350;2023-03-16T03:08:51;40.03;;;6.53;;
18752;SDS011;9505;50.882;5.350;2023-03-16T03:11:17;40.83;;;6.47;;
18752;SDS011;9505;50.882;5.350;2023-03-16T03:13:44;36.13;;;5.60;;
18752;SDS011;9505;50.882;5.350;2023-03-16T03:16:10;42.53;;;6.97;;
18752;SDS011;9505;50.882;5.350;2023-03-16T03:18:36;44.20;;;6.65;;
18752;SDS011;9505;50.882;5.350;2023-03-16T03:21:02;44.00;;;6.35;;
18752;SDS011;9505;50.882;5.350;2023-03-16T03:23:28;33.53;;;5.43;;
18752;SDS011;9505;50.882;5.350;2023-03-16T03:25:57;36.83;;;5.70;;
18752;SDS011;9505;50.882;5.350;2023-03-16T03:28:24;38.15;;;5.72;;
18752;SDS011;9505;50.882;5.350;2023-03-16T03:30:50;35.40;;;5.68;;
18752;SDS011;9505;50.882;5.350;2023-03-16T03:33:16;38.55;;;6.05;;
18752;SDS011;9505;50.882;5.350;2023-03-16T03:35:42;43.88;;;6.18;;
18752;SDS011;9505;50.882;5.350;2023-03-16T03:38:08;35.70;;;6.03;;
18752;SDS011;9505;50.882;5.350;2023-03-16T03:40:35;37.78;;;6.53;;
18752;SDS011;9505;50.882;5.350;2023-03-16T03:43:02;37.38;;;5.97;;
18752;SDS011;9505;50.882;5.350;2023-03-16T03:45:29;41.28;;;7.72;;
18752;SDS011;9505;50.882;5.350;2023-03-16T03:47:55;37.15;;;5.97;;
18752;SDS011;9505;50.882;5.350;2023-03-16T03:50:20;49.83;;;6.75;;
18752;SDS011;9505;50.882;5.350;2023-03-16T03:52:46;37.47;;;5.88;;
18752;SDS011;9505;50.882;5.350;2023-03-16T03:55:12;39.40;;;6.18;;
18752;SDS011;9505;50.882;5.350;2023-03-16T03:57:38;36.40;;;5.97;;
18752;SDS011;9505;50.882;5.350;2023-03-16T04:00:05;50.90;;;7.30;;
18752;SDS011;9505;50.882;5.350;2023-03-16T04:02:37;50.70;;;7.65;;
18752;SDS011;9505;50.882;5.350;2023-03-16T04:05:04;38.95;;;6.60;;
18752;SDS011;9505;50.882;5.350;2023-03-16T04:07:30;36.30;;;6.10;;
18752;SDS011;9505;50.882;5.350;2023-03-16T04:09:55;59.35;;;8.23;;
18752;SDS011;9505;50.882;5.350;2023-03-16T04:12:21;42.35;;;6.07;;
18752;SDS011;9505;50.882;5.350;2023-03-16T04:14:47;42.17;;;6.38;;
18752;SDS011;9505;50.882;5.350;2023-03-16T04:17:12;35.70;;;6.00;;
18752;SDS011;9505;50.882;5.350;2023-03-16T04:19:38;39.00;;;6.18;;
18752;SDS011;9505;50.882;5.350;2023-03-16T04:22:03;39.78;;;6.18;;
18752;SDS011;9505;50.882;5.350;2023-03-16T04:24:30;37.20;;;6.45;;
18752;SDS011;9505;50.882;5.350;2023-03-16T04:26:58;42.22;;;7.05;;
18752;SDS011;9505;50.882;5.350;2023-03-16T04:29:24;37.85;;;6.28;;
18752;SDS011;9505;50.882;5.350;2023-03-16T04:31:50;35.10;;;5.85;;
18752;SDS011;9505;50.882;5.350;2023-03-16T04:34:17;34.05;;;5.85;;
18752;SDS011;9505;50.882;5.350;2023-03-16T04:36:44;39.95;;;6.30;;
18752;SDS011;9505;50.882;5.350;2023-03-16T04:39:09;45.42;;;7.13;;
18752;SDS011;9505;50.882;5.350;2023-03-16T04:41:35;43.10;;;7.07;;
18752;SDS011;9505;50.882;5.350;2023-03-16T04:44:00;31.88;;;5.65;;
18752;SDS011;9505;50.882;5.350;2023-03-16T04:46:26;37.22;;;6.22;;
18752;SDS011;9505;50.882;5.350;2023-03-16T04:48:53;41.80;;;6.57;;
18752;SDS011;9505;50.882;5.350;2023-03-16T04:51:22;43.63;;;7.00;;
18752;SDS011;9505;50.882;5.350;2023-03-16T04:53:48;41.72;;;6.80;;
18752;SDS011;9505;50.882;5.350;2023-03-16T04:56:13;39.00;;;6.50;;
18752;SDS011;9505;50.882;5.350;2023-03-16T04:58:46;35.97;;;5.80;;
18752;SDS011;9505;50.882;5.350;2023-03-16T05:01:14;44.42;;;7.13;;
18752;SDS011;9505;50.882;5.350;2023-03-16T05:03:41;40.90;;;6.72;;
18752;SDS011;9505;50.882;5.350;2023-03-16T05:06:07;40.78;;;6.43;;
18752;SDS011;9505;50.882;5.350;2023-03-16T05:08:34;41.38;;;6.63;;
18752;SDS011;9505;50.882;5.350;2023-03-16T05:11:00;38.30;;;6.13;;
18752;SDS011;9505;50.882;5.350;2023-03-16T05:13:26;42.65;;;6.93;;
18752;SDS011;9505;50.882;5.350;2023-03-16T05:15:51;42.50;;;7.10;;
18752;SDS011;9505;50.882;5.350;2023-03-16T05:18:17;43.65;;;6.47;;
18752;SDS011;9505;50.882;5.350;2023-03-16T05:20:44;42.20;;;6.63;;
18752;SDS011;9505;50.882;5.350;2023-03-16T05:23:09;41.42;;;6.55;;
18752;SDS011;9505;50.882;5.350;2023-03-16T05:25:36;37.25;;;6.10;;
18752;SDS011;9505;50.882;5.350;2023-03-16T05:28:02;38.83;;;6.22;;
18752;SDS011;9505;50.882;5.350;2023-03-16T05:30:28;34.95;;;5.93;;
18752;SDS011;9505;50.882;5.350;2023-03-16T05:32:54;41.30;;;6.50;;
18752;SDS011;9505;50.882;5.350;2023-03-16T05:35:21;36.88;;;6.50;;
18752;SDS011;9505;50.882;5.350;2023-03-16T05:37:47;38.80;;;6.22;;
18752;SDS011;9505;50.882;5.350;2023-03-16T05:40:13;37.72;;;6.47;;
18752;SDS011;9505;50.882;5.350;2023-03-16T05:42:43;40.42;;;6.65;;
18752;SDS011;9505;50.882;5.350;2023-03-16T05:45:14;36.00;;;5.28;;
18752;SDS011;9505;50.882;5.350;2023-03-16T05:47:41;37.90;;;5.57;;
18752;SDS011;9505;50.882;5.350;2023-03-16T05:50:12;43.25;;;6.35;;
18752;SDS011;9505;50.882;5.350;2023-03-16T05:52:41;41.38;;;6.45;;
18752;SDS011;9505;50.882;5.350;2023-03-16T05:55:08;39.75;;;6.38;;
18752;SDS011;9505;50.882;5.350;2023-03-16T05:57:35;31.25;;;5.35;;
18752;SDS011;9505;50.882;5.350;2023-03-16T06:00:01;56.60;;;7.07;;
18752;SDS011;9505;50.882;5.350;2023-03-16T06:02:43;34.90;;;5.55;;
18752;SDS011;9505;50.882;5.350;2023-03-16T06:05:11;41.05;;;5.78;;
18752;SDS011;9505;50.882;5.350;2023-03-16T06:07:37;44.10;;;7.00;;
18752;SDS011;9505;50.882;5.350;2023-03-16T06:10:02;40.60;;;6.78;;
18752;SDS011;9505;50.882;5.350;2023-03-16T06:12:29;37.63;;;6.00;;
18752;SDS011;9505;50.882;5.350;2023-03-16T06:14:55;45.65;;;6.82;;
18752;SDS011;9505;50.882;5.350;2023-03-16T06:17:21;45.75;;;6.30;;
18752;SDS011;9505;50.882;5.350;2023-03-16T06:19:47;42.58;;;6.47;;
18752;SDS011;9505;50.882;5.350;2023-03-16T06:22:12;47.33;;;6.68;;
18752;SDS011;9505;50.882;5.350;2023-03-16T06:24:38;34.15;;;5.47;;
18752;SDS011;9505;50.882;5.350;2023-03-16T06:27:03;45.30;;;6.68;;
18752;SDS011;9505;50.882;5.350;2023-03-16T06:29:29;37.65;;;5.63;;
18752;SDS011;9505;50.882;5.350;2023-03-16T06:31:55;42.20;;;6.63;;
18752;SDS011;9505;50.882;5.350;2023-03-16T06:34:21;47.75;;;7.22;;
18752;SDS011;9505;50.882;5.350;2023-03-16T06:36:46;53.97;;;7.43;;
18752;SDS011;9505;50.882;5.350;2023-03-16T06:39:12;45.88;;;7.22;;
18752;SDS011;9505;50.882;5.350;2023-03-16T06:41:38;44.05;;;6.57;;
18752;SDS011;9505;50.882;5.350;2023-03-16T06:44:06;52.03;;;7.07;;
18752;SDS011;9505;50.882;5.350;2023-03-16T06:46:33;32.80;;;5.15;;
18752;SDS011;9505;50.882;5.350;2023-03-16T06:48:58;43.80;;;6.57;;
18752;SDS011;9505;50.882;5.350;2023-03-16T06:51:25;38.92;;;5.50;;
18752;SDS011;9505;50.882;5.350;2023-03-16T06:53:51;42.20;;;6.32;;
18752;SDS011;9505;50.882;5.350;2023-03-16T06:56:16;32.78;;;5.40;;
18752;SDS011;9505;50.882;5.350;2023-03-16T06:58:42;34.15;;;5.35;;
18752;SDS011;9505;50.882;5.350;2023-03-16T07:01:08;42.30;;;6.30;;
18752;SDS011;9505;50.882;5.350;2023-03-16T07:03:33;50.80;;;6.35;;
18752;SDS011;9505;50.882;5.350;2023-03-16T07:05:59;45.40;;;6.45;;
18752;SDS011;9505;50.882;5.350;2023-03-16T07:08:25;34.42;;;5.32;;
18752;SDS011;9505;50.882;5.350;2023-03-16T07:10:51;42.78;;;5.50;;
18752;SDS011;9505;50.882;5.350;2023-03-16T07:13:18;41.72;;;5.47;;
18752;SDS011;9505;50.882;5.350;2023-03-16T07:15:44;38.08;;;5.40;;
18752;SDS011;9505;50.882;5.350;2023-03-16T07:18:09;38.78;;;5.43;;
18752;SDS011;9505;50.882;5.350;2023-03-16T07:20:36;39.10;;;5.72;;
18752;SDS011;9505;50.882;5.350;2023-03-16T07:23:02;54.40;;;7.40;;
18752;SDS011;9505;50.882;5.350;2023-03-16T07:25:28;40.38;;;5.32;;
18752;SDS011;9505;50.882;5.350;2023-03-16T07:27:55;47.53;;;6.32;;
18752;SDS011;9505;50.882;5.350;2023-03-16T07:30:21;37.80;;;5.28;;
18752;SDS011;9505;50.882;5.350;2023-03-16T07:32:49;47.55;;;6.40;;
18752;SDS011;9505;50.882;5.350;2023-03-16T07:35:15;45.35;;;5.88;;
18752;SDS011;9505;50.882;5.350;2023-03-16T07:37:41;33.83;;;4.95;;
18752;SDS011;9505;50.882;5.350;2023-03-16T07:40:07;40.35;;;5.32;;
18752;SDS011;9505;50.882;5.350;2023-03-16T07:42:34;35.60;;;5.15;;
18752;SDS011;9505;50.882;5.350;2023-03-16T07:45:00;41.88;;;5.65;;
18752;SDS011;9505;50.882;5.350;2023-03-16T07:47:26;30.00;;;4.40;;
18752;SDS011;9505;50.882;5.350;2023-03-16T07:49:52;46.13;;;6.20;;
18752;SDS011;9505;50.882;5.350;2023-03-16T07:52:18;38.88;;;5.65;;
18752;SDS011;9505;50.882;5.350;2023-03-16T07:54:43;41.63;;;5.70;;
18752;SDS011;9505;50.882;5.350;2023-03-16T07:57:09;38.40;;;5.43;;
18752;SDS011;9505;50.882;5.350;2023-03-16T07:59:35;38.55;;;5.55;;
18752;SDS011;9505;50.882;5.350;2023-03-16T08:02:02;38.85;;;5.20;;
18752;SDS011;9505;50.882;5.350;2023-03-16T08:04:28;34.78;;;5.25;;
18752;SDS011;9505;50.882;5.350;2023-03-16T08:06:54;45.72;;;6.07;;
18752;SDS011;9505;50.882;5.350;2023-03-16T08:09:24;38.63;;;5.30;;
18752;SDS011;9505;50.882;5.350;2023-03-16T08:11:50;42.17;;;5.60;;
18752;SDS011;9505;50.882;5.350;2023-03-16T08:14:16;42.38;;;5.50;;
18752;SDS011;9505;50.882;5.350;2023-03-16T08:16:42;39.15;;;5.07;;
18752;SDS011;9505;50.882;5.350;2023-03-16T08:19:07;46.65;;;6.45;;
18752;SDS011;9505;50.882;5.350;2023-03-16T08:21:33;40.53;;;5.00;;
18752;SDS011;9505;50.882;5.350;2023-03-16T08:24:00;39.35;;;5.25;;
18752;SDS011;9505;50.882;5.350;2023-03-16T08:26:25;31.02;;;4.00;;
18752;SDS011;9505;50.882;5.350;2023-03-16T08:28:51;38.47;;;5.10;;
18752;SDS011;9505;50.882;5.350;2023-03-16T08:31:18;39.45;;;5.72;;
18752;SDS011;9505;50.882;5.350;2023-03-16T08:33:45;34.80;;;5.05;;
18752;SDS011;9505;50.882;5.350;2023-03-16T08:36:13;34.33;;;4.60;;
18752;SDS011;9505;50.882;5.350;2023-03-16T08:38:40;33.95;;;4.90;;
18752;SDS011;9505;50.882;5.350;2023-03-16T08:41:11;36.75;;;5.25;;
18752;SDS011;9505;50.882;5.350;2023-03-16T08:43:36;33.95;;;5.07;;
18752;SDS011;9505;50.882;5.350;2023-03-16T08:46:02;45.00;;;6.18;;
18752;SDS011;9505;50.882;5.350;2023-03-16T08:48:29;41.03;;;5.35;;
18752;SDS011;9505;50.882;5.350;2023-03-16T08:51:00;30.50;;;4.28;;
18752;SDS011;9505;50.882;5.350;2023-03-16T08:53:30;39.97;;;5.57;;
18752;SDS011;9505;50.882;5.350;2023-03-16T08:56:06;39.95;;;5.72;;
18752;SDS011;9505;50.882;5.350;2023-03-16T08:58:33;28.33;;;4.40;;
18752;SDS011;9505;50.882;5.350;2023-03-16T09:01:00;38.00;;;5.38;;
18752;SDS011;9505;50.882;5.350;2023-03-16T09:03:26;31.70;;;4.72;;
18752;SDS011;9505;50.882;5.350;2023-03-16T09:05:52;35.70;;;5.13;;
18752;SDS011;9505;50.882;5.350;2023-03-16T09:08:24;31.33;;;4.65;;
18752;SDS011;9505;50.882;5.350;2023-03-16T09:10:49;32.72;;;4.90;;
18752;SDS011;9505;50.882;5.350;2023-03-16T09:13:22;31.08;;;4.38;;
18752;SDS011;9505;50.882;5.350;2023-03-16T09:15:49;21.92;;;3.42;;
18752;SDS011;9505;50.882;5.350;2023-03-16T09:18:15;32.80;;;5.03;;
18752;SDS011;9505;50.882;5.350;2023-03-16T09:20:42;26.77;;;4.70;;
18752;SDS011;9505;50.882;5.350;2023-03-16T09:23:08;32.90;;;4.78;;
18752;SDS011;9505;50.882;5.350;2023-03-16T09:25:34;29.90;;;4.40;;
18752;SDS011;9505;50.882;5.350;2023-03-16T09:28:00;40.00;;;5.60;;
18752;SDS011;9505;50.882;5.350;2023-03-16T09:30:25;36.42;;;5.10;;
18752;SDS011;9505;50.882;5.350;2023-03-16T09:32:52;30.58;;;4.70;;
18752;SDS011;9505;50.882;5.350;2023-03-16T09:35:17;30.88;;;4.70;;
18752;SDS011;9505;50.882;5.350;2023-03-16T09:37:43;25.70;;;4.18;;
18752;SDS011;9505;50.882;5.350;2023-03-16T09:40:25;31.90;;;6.18;;
18752;SDS011;9505;50.882;5.350;2023-03-16T09:48:16;32.75;;;4.68;;
18752;SDS011;9505;50.882;5.350;2023-03-16T09:50:44;23.60;;;3.58;;
18752;SDS011;9505;50.882;5.350;2023-03-16T09:55:50;31.02;;;4.80;;
18752;SDS011;9505;50.882;5.350;2023-03-16T09:58:20;32.83;;;4.53;;
18752;SDS011;9505;50.882;5.350;2023-03-16T10:01:31;33.63;;;5.00;;
18752;SDS011;9505;50.882;5.350;2023-03-16T10:06:35;35.88;;;4.85;;
18752;SDS011;9505;50.882;5.350;2023-03-16T10:11:48;28.00;;;4.28;;
18752;SDS011;9505;50.882;5.350;2023-03-16T10:22:20;29.17;;;4.60;;
18752;SDS011;9505;50.882;5.350;2023-03-16T10:27:40;35.25;;;4.78;;
18752;SDS011;9505;50.882;5.350;2023-03-16T10:30:18;38.92;;;4.78;;
18752;SDS011;9505;50.882;5.350;2023-03-16T10:32:53;20.20;;;3.20;;
18752;SDS011;9505;50.882;5.350;2023-03-16T10:35:31;33.10;;;4.85;;
18752;SDS011;9505;50.882;5.350;2023-03-16T10:43:41;22.60;;;3.58;;
18752;SDS011;9505;50.882;5.350;2023-03-16T10:46:08;44.50;;;5.70;;
18752;SDS011;9505;50.882;5.350;2023-03-16T10:48:36;31.67;;;4.50;;
18752;SDS011;9505;50.882;5.350;2023-03-16T10:51:03;26.15;;;3.58;;
18752;SDS011;9505;50.882;5.350;2023-03-16T10:53:35;28.00;;;3.67;;
18752;SDS011;9505;50.882;5.350;2023-03-16T10:56:12;38.05;;;4.80;;
18752;SDS011;9505;50.882;5.350;2023-03-16T10:58:46;35.50;;;4.70;;
18752;SDS011;9505;50.882;5.350;2023-03-16T11:01:25;41.75;;;5.45;;
18752;SDS011;9505;50.882;5.350;2023-03-16T11:03:53;38.17;;;4.97;;
18752;SDS011;9505;50.882;5.350;2023-03-16T11:08:47;23.58;;;3.17;;
18752;SDS011;9505;50.882;5.350;2023-03-16T11:11:13;28.67;;;3.92;;
18752;SDS011;9505;50.882;5.350;2023-03-16T11:13:43;32.13;;;4.13;;
18752;SDS011;9505;50.882;5.350;2023-03-16T11:18:43;37.80;;;4.57;;
18752;SDS011;9505;50.882;5.350;2023-03-16T11:21:16;33.58;;;4.60;;
18752;SDS011;9505;50.882;5.350;2023-03-16T11:24:02;33.85;;;4.53;;
18752;SDS011;9505;50.882;5.350;2023-03-16T11:26:33;27.92;;;3.85;;
18752;SDS011;9505;50.882;5.350;2023-03-16T11:29:06;26.00;;;3.83;;
18752;SDS011;9505;50.882;5.350;2023-03-16T11:34:15;33.35;;;4.50;;
18752;SDS011;9505;50.882;5.350;2023-03-16T11:36:51;27.58;;;4.18;;
18752;SDS011;9505;50.882;5.350;2023-03-16T11:39:30;39.92;;;5.05;;
18752;SDS011;9505;50.882;5.350;2023-03-16T11:45:33;30.02;;;3.97;;
18752;SDS011;9505;50.882;5.350;2023-03-16T11:54:02;30.15;;;4.05;;
18752;SDS011;9505;50.882;5.350;2023-03-16T11:56:42;30.77;;;4.43;;
18752;SDS011;9505;50.882;5.350;2023-03-16T12:19:08;25.50;;;3.33;;
18752;SDS011;9505;50.882;5.350;2023-03-16T12:21:44;30.52;;;3.70;;
18752;SDS011;9505;50.882;5.350;2023-03-16T12:24:21;32.80;;;4.05;;
18752;SDS011;9505;50.882;5.350;2023-03-16T12:26:51;27.80;;;3.65;;
18752;SDS011;9505;50.882;5.350;2023-03-16T12:29:24;29.55;;;3.80;;
18752;SDS011;9505;50.882;5.350;2023-03-16T12:32:00;22.38;;;3.00;;
18752;SDS011;9505;50.882;5.350;2023-03-16T12:34:36;26.00;;;3.38;;
18752;SDS011;9505;50.882;5.350;2023-03-16T12:37:26;26.02;;;3.30;;
18752;SDS011;9505;50.882;5.350;2023-03-16T12:48:31;38.08;;;4.90;;
18752;SDS011;9505;50.882;5.350;2023-03-16T12:51:01;39.13;;;4.63;;
18752;SDS011;9505;50.882;5.350;2023-03-16T12:56:16;36.53;;;4.97;;
18752;SDS011;9505;50.882;5.350;2023-03-16T12:58:48;29.35;;;3.95;;
18752;SDS011;9505;50.882;5.350;2023-03-16T13:01:18;30.85;;;3.83;;
18752;SDS011;9505;50.882;5.350;2023-03-16T13:03:49;29.38;;;3.85;;
18752;SDS011;9505;50.882;5.350;2023-03-16T13:06:49;38.10;;;5.03;;
18752;SDS011;9505;50.882;5.350;2023-03-16T13:09:25;43.53;;;5.43;;
18752;SDS011;9505;50.882;5.350;2023-03-16T13:11:53;27.60;;;3.83;;
18752;SDS011;9505;50.882;5.350;2023-03-16T13:14:40;26.83;;;3.75;;
18752;SDS011;9505;50.882;5.350;2023-03-16T13:19:40;29.20;;;3.67;;
18752;SDS011;9505;50.882;5.350;2023-03-16T13:22:23;38.50;;;4.70;;
18752;SDS011;9505;50.882;5.350;2023-03-16T13:24:55;19.63;;;2.88;;
18752;SDS011;9505;50.882;5.350;2023-03-16T13:27:38;29.45;;;3.78;;
18752;SDS011;9505;50.882;5.350;2023-03-16T13:30:15;18.52;;;2.53;;
18752;SDS011;9505;50.882;5.350;2023-03-16T13:32:41;28.13;;;3.60;;
18752;SDS011;9505;50.882;5.350;2023-03-16T13:35:10;34.58;;;4.18;;
18752;SDS011;9505;50.882;5.350;2023-03-16T13:37:39;26.30;;;3.80;;
18752;SDS011;9505;50.882;5.350;2023-03-16T13:42:51;32.20;;;4.07;;
18752;SDS011;9505;50.882;5.350;2023-03-16T13:45:23;27.52;;;3.50;;
18752;SDS011;9505;50.882;5.350;2023-03-16T13:48:00;33.67;;;4.43;;
18752;SDS011;9505;50.882;5.350;2023-03-16T13:50:30;26.23;;;3.28;;
18752;SDS011;9505;50.882;5.350;2023-03-16T13:52:59;29.38;;;3.88;;
18752;SDS011;9505;50.882;5.350;2023-03-16T13:55:31;33.65;;;4.15;;
18752;SDS011;9505;50.882;5.350;2023-03-16T13:57:59;30.65;;;3.88;;
18752;SDS011;9505;50.882;5.350;2023-03-16T14:00:26;31.17;;;3.90;;
18752;SDS011;9505;50.882;5.350;2023-03-16T14:02:57;27.13;;;3.67;;
18752;SDS011;9505;50.882;5.350;2023-03-16T14:07:52;27.45;;;3.53;;
18752;SDS011;9505;50.882;5.350;2023-03-16T14:10:20;27.08;;;3.67;;
18752;SDS011;9505;50.882;5.350;2023-03-16T14:12:52;29.05;;;3.70;;
18752;SDS011;9505;50.882;5.350;2023-03-16T14:15:20;26.95;;;3.50;;
18752;SDS011;9505;50.882;5.350;2023-03-16T14:17:49;27.20;;;3.67;;
18752;SDS011;9505;50.882;5.350;2023-03-16T14:20:24;30.60;;;3.90;;
18752;SDS011;9505;50.882;5.350;2023-03-16T14:22:50;27.83;;;3.80;;
18752;SDS011;9505;50.882;5.350;2023-03-16T14:25:21;16.65;;;2.30;;
18752;SDS011;9505;50.882;5.350;2023-03-16T14:28:01;25.73;;;3.50;;
18752;SDS011;9505;50.882;5.350;2023-03-16T14:30:31;24.88;;;3.30;;
18752;SDS011;9505;50.882;5.350;2023-03-16T14:33:00;29.92;;;4.00;;
18752;SDS011;9505;50.882;5.350;2023-03-16T14:35:32;25.23;;;3.53;;
18752;SDS011;9505;50.882;5.350;2023-03-16T14:43:44;28.50;;;3.90;;
18752;SDS011;9505;50.882;5.350;2023-03-16T14:46:12;29.83;;;3.78;;
18752;SDS011;9505;50.882;5.350;2023-03-16T14:48:43;30.98;;;4.00;;
18752;SDS011;9505;50.882;5.350;2023-03-16T14:51:11;33.63;;;4.28;;
18752;SDS011;9505;50.882;5.350;2023-03-16T14:53:38;23.77;;;3.03;;
18752;SDS011;9505;50.882;5.350;2023-03-16T14:56:08;25.48;;;3.25;;
18752;SDS011;9505;50.882;5.350;2023-03-16T14:58:37;31.95;;;4.00;;
18752;SDS011;9505;50.882;5.350;2023-03-16T15:01:04;28.65;;;3.63;;
18752;SDS011;9505;50.882;5.350;2023-03-16T15:03:31;29.60;;;3.97;;
18752;SDS011;9505;50.882;5.350;2023-03-16T15:05:59;28.05;;;3.83;;
18752;SDS011;9505;50.882;5.350;2023-03-16T15:08:26;28.60;;;3.40;;
18752;SDS011;9505;50.882;5.350;2023-03-16T15:10:59;32.25;;;4.18;;
18752;SDS011;9505;50.882;5.350;2023-03-16T15:13:28;26.95;;;3.67;;
18752;SDS011;9505;50.882;5.350;2023-03-16T15:16:17;33.30;;;4.18;;
18752;SDS011;9505;50.882;5.350;2023-03-16T15:18:46;39.50;;;4.82;;
18752;SDS011;9505;50.882;5.350;2023-03-16T15:21:13;35.53;;;4.25;;
18752;SDS011;9505;50.882;5.350;2023-03-16T15:23:42;32.60;;;4.28;;
18752;SDS011;9505;50.882;5.350;2023-03-16T15:26:10;35.63;;;4.22;;
18752;SDS011;9505;50.882;5.350;2023-03-16T15:28:37;35.80;;;4.50;;
18752;SDS011;9505;50.882;5.350;2023-03-16T15:31:03;33.78;;;4.13;;
18752;SDS011;9505;50.882;5.350;2023-03-16T15:33:29;33.97;;;3.80;;
18752;SDS011;9505;50.882;5.350;2023-03-16T15:35:57;32.80;;;3.90;;
18752;SDS011;9505;50.882;5.350;2023-03-16T15:38:25;28.13;;;3.97;;
18752;SDS011;9505;50.882;5.350;2023-03-16T15:41:00;26.17;;;3.63;;
18752;SDS011;9505;50.882;5.350;2023-03-16T15:43:26;28.75;;;3.72;;
18752;SDS011;9505;50.882;5.350;2023-03-16T15:45:54;33.00;;;4.20;;
18752;SDS011;9505;50.882;5.350;2023-03-16T15:48:21;27.15;;;3.80;;
18752;SDS011;9505;50.882;5.350;2023-03-16T15:50:51;25.08;;;3.47;;
18752;SDS011;9505;50.882;5.350;2023-03-16T15:53:32;26.98;;;3.63;;
18752;SDS011;9505;50.882;5.350;2023-03-16T15:56:05;31.17;;;4.25;;
18752;SDS011;9505;50.882;5.350;2023-03-16T15:58:33;33.33;;;4.25;;
18752;SDS011;9505;50.882;5.350;2023-03-16T16:01:02;34.38;;;4.70;;
18752;SDS011;9505;50.882;5.350;2023-03-16T16:03:28;33.70;;;4.50;;
18752;SDS011;9505;50.882;5.350;2023-03-16T16:05:55;34.22;;;4.38;;
18752;SDS011;9505;50.882;5.350;2023-03-16T16:08:21;24.13;;;3.40;;
18752;SDS011;9505;50.882;5.350;2023-03-16T16:10:47;26.73;;;3.75;;
18752;SDS011;9505;50.882;5.350;2023-03-16T16:13:24;34.72;;;4.63;;
18752;SDS011;9505;50.882;5.350;2023-03-16T16:15:53;29.35;;;4.15;;
18752;SDS011;9505;50.882;5.350;2023-03-16T16:18:24;28.00;;;3.90;;
18752;SDS011;9505;50.882;5.350;2023-03-16T16:20:54;29.88;;;4.00;;
18752;SDS011;9505;50.882;5.350;2023-03-16T16:23:21;24.17;;;3.42;;
18752;SDS011;9505;50.882;5.350;2023-03-16T16:25:47;28.58;;;3.97;;
18752;SDS011;9505;50.882;5.350;2023-03-16T16:28:25;33.92;;;4.55;;
18752;SDS011;9505;50.882;5.350;2023-03-16T16:30:54;31.02;;;4.15;;
18752;SDS011;9505;50.882;5.350;2023-03-16T16:36:02;29.90;;;4.13;;
18752;SDS011;9505;50.882;5.350;2023-03-16T16:38:30;33.95;;;4.45;;